createdAt,value
2022-12-11T00:01:57.537Z,44.40
2022-12-11T00:04:24.434Z,45.70
2022-12-11T00:06:52.380Z,37.05
2022-12-11T00:09:20.791Z,42.67
2022-12-11T00:11:48.109Z,35.47
2022-12-11T00:14:15.267Z,44.83
2022-12-11T00:16:41.933Z,49.45
2022-12-11T00:19:08.611Z,40.65
2022-12-11T00:21:35.122Z,38.22
2022-12-11T00:24:01.591Z,43.67
2022-12-11T00:26:28.263Z,41.27
2022-12-11T00:28:57.036Z,41.92
2022-12-11T00:31:24.255Z,46.42
2022-12-11T00:33:51.392Z,39.90
2022-12-11T00:36:23.712Z,43.03
2022-12-11T00:38:50.886Z,34.97
2022-12-11T00:41:17.940Z,39.45
2022-12-11T00:43:44.764Z,44.08
2022-12-11T00:46:12.176Z,45.58
2022-12-11T00:48:38.981Z,35.97
2022-12-11T00:51:05.876Z,38.23
2022-12-11T00:53:32.446Z,39.55
2022-12-11T00:55:58.872Z,44.75
2022-12-11T00:58:25.384Z,44.63
2022-12-11T01:00:53.250Z,35.97
2022-12-11T01:03:20.004Z,37.43
2022-12-11T01:05:54.869Z,45.58
2022-12-11T01:08:21.594Z,39.78
2022-12-11T01:10:48.406Z,43.35
2022-12-11T01:13:14.932Z,41.60
2022-12-11T01:15:44.256Z,42.30
2022-12-11T01:18:15.591Z,39.53
2022-12-11T01:20:43.096Z,45.35
2022-12-11T01:23:12.497Z,48.35
2022-12-11T01:25:39.546Z,40.58
2022-12-11T01:28:06.628Z,46.03
2022-12-11T01:30:33.668Z,49.30
2022-12-11T01:33:00.887Z,54.80
2022-12-11T01:35:28.055Z,44.80
2022-12-11T01:37:54.606Z,52.03
2022-12-11T01:40:21.877Z,43.67
2022-12-11T01:42:48.404Z,44.10
2022-12-11T01:45:30.191Z,50.55
2022-12-11T01:48:09.492Z,50.08
2022-12-11T01:50:50.682Z,47.97
2022-12-11T01:53:21.139Z,45.10
2022-12-11T01:55:50.278Z,43.78
2022-12-11T01:58:18.439Z,39.75
2022-12-11T02:00:45.243Z,38.65
2022-12-11T02:03:12.626Z,47.67
2022-12-11T02:05:39.425Z,46.33
2022-12-11T02:08:07.694Z,41.65
2022-12-11T02:10:51.974Z,44.47
2022-12-11T02:13:31.440Z,43.90
2022-12-11T02:16:08.029Z,34.78
2022-12-11T02:18:58.456Z,39.03
2022-12-11T02:21:45.226Z,43.65
2022-12-11T02:24:27.163Z,41.95
2022-12-11T02:27:14.820Z,38.83
2022-12-11T02:29:47.370Z,37.15
2022-12-11T02:32:19.565Z,38.70
2022-12-11T02:35:06.366Z,40.60
2022-12-11T02:37:37.415Z,42.10
2022-12-11T02:40:07.794Z,43.92
2022-12-11T02:42:36.889Z,36.72
2022-12-11T02:45:06.603Z,36.90
2022-12-11T02:47:33.781Z,42.20
2022-12-11T02:50:03.497Z,40.10
2022-12-11T02:52:32.677Z,40.65
2022-12-11T02:55:01.229Z,47.30
2022-12-11T02:57:36.322Z,39.97
2022-12-11T03:00:04.704Z,42.20
2022-12-11T03:02:31.465Z,41.85
2022-12-11T03:04:59.489Z,40.15
2022-12-11T03:07:34.024Z,33.83
2022-12-11T03:10:00.629Z,38.47
2022-12-11T03:12:34.323Z,42.75
2022-12-11T03:15:03.459Z,39.92
2022-12-11T03:17:44.244Z,39.97
2022-12-11T03:20:25.886Z,39.15
2022-12-11T03:23:33.366Z,37.33
2022-12-11T03:26:05.940Z,34.90
2022-12-11T03:28:45.559Z,36.95
2022-12-11T03:31:19.765Z,37.15
2022-12-11T03:33:50.703Z,34.35
2022-12-11T03:36:30.418Z,31.60
2022-12-11T03:39:01.981Z,34.88
2022-12-11T03:41:32.184Z,33.78
2022-12-11T03:43:59.070Z,31.40
2022-12-11T03:46:33.358Z,34.35
2022-12-11T03:49:05.554Z,33.57
2022-12-11T03:51:33.230Z,32.42
2022-12-11T03:54:00.115Z,29.15
2022-12-11T03:56:29.989Z,31.38
2022-12-11T03:58:56.416Z,29.58
2022-12-11T04:01:23.096Z,28.17
2022-12-11T04:03:49.603Z,33.10
2022-12-11T04:06:16.132Z,26.80
2022-12-11T04:08:42.746Z,31.98
2022-12-11T04:11:28.980Z,28.73
2022-12-11T04:14:14.126Z,25.70
2022-12-11T04:16:40.565Z,26.98
2022-12-11T04:19:25.558Z,26.88
2022-12-11T04:22:10.527Z,28.33
2022-12-11T04:24:37.021Z,29.50
2022-12-11T04:27:03.635Z,26.63
2022-12-11T04:29:30.193Z,24.80
2022-12-11T04:31:56.678Z,24.88
2022-12-11T04:34:23.430Z,26.65
2022-12-11T04:36:50.473Z,27.98
2022-12-11T04:39:17.280Z,27.50
2022-12-11T04:41:44.058Z,21.88
2022-12-11T04:44:10.597Z,24.42
2022-12-11T04:46:37.093Z,25.48
2022-12-11T04:49:03.659Z,23.10
2022-12-11T04:51:30.069Z,26.67
2022-12-11T04:53:57.730Z,23.38
2022-12-11T04:56:24.333Z,21.63
2022-12-11T04:58:50.793Z,24.20
2022-12-11T05:01:20.658Z,22.08
2022-12-11T05:03:47.681Z,21.33
2022-12-11T05:06:14.535Z,23.35
2022-12-11T05:08:42.606Z,24.00
2022-12-11T05:11:11.694Z,23.42
2022-12-11T05:13:38.740Z,20.98
2022-12-11T05:16:07.311Z,21.50
2022-12-11T05:18:34.192Z,19.13
2022-12-11T05:21:06.945Z,23.20
2022-12-11T05:23:34.196Z,19.70
2022-12-11T05:26:04.102Z,20.13
2022-12-11T05:28:34.132Z,20.30
2022-12-11T05:31:22.759Z,20.95
2022-12-11T05:33:50.546Z,19.38
2022-12-11T05:36:20.760Z,22.38
2022-12-11T05:38:47.504Z,21.83
2022-12-11T05:41:17.217Z,24.03
2022-12-11T05:43:44.381Z,20.65
2022-12-11T05:46:14.221Z,20.17
2022-12-11T05:48:42.570Z,20.95
2022-12-11T05:51:10.181Z,17.63
2022-12-11T05:53:37.963Z,16.83
2022-12-11T05:56:11.606Z,20.40
2022-12-11T05:58:38.323Z,19.38
2022-12-11T06:01:14.189Z,17.95
2022-12-11T06:03:40.726Z,19.30
2022-12-11T06:06:07.496Z,17.60
2022-12-11T06:08:34.716Z,21.50
2022-12-11T06:11:01.881Z,19.50
2022-12-11T06:13:28.389Z,21.55
2022-12-11T06:15:54.871Z,22.42
2022-12-11T06:18:21.679Z,21.60
2022-12-11T06:20:48.286Z,18.83
2022-12-11T06:23:14.886Z,20.27
2022-12-11T06:25:41.596Z,20.77
2022-12-11T06:28:08.226Z,22.27
2022-12-11T06:30:37.637Z,26.27
2022-12-11T06:33:06.323Z,20.25
2022-12-11T06:35:35.124Z,23.17
2022-12-11T06:38:06.697Z,24.77
2022-12-11T06:40:33.133Z,21.23
2022-12-11T06:42:59.781Z,20.80
2022-12-11T06:45:26.247Z,22.75
2022-12-11T06:47:52.825Z,19.25
2022-12-11T06:50:19.267Z,23.27
2022-12-11T06:52:45.716Z,22.15
2022-12-11T06:55:12.555Z,22.03
2022-12-11T06:57:39.205Z,21.60
2022-12-11T07:00:06.417Z,25.02
2022-12-11T07:02:32.943Z,24.65
2022-12-11T07:04:59.515Z,25.50
2022-12-11T07:07:26.062Z,26.63
2022-12-11T07:09:52.709Z,26.38
2022-12-11T07:12:19.163Z,26.35
2022-12-11T07:14:45.747Z,24.10
2022-12-11T07:17:12.531Z,26.00
2022-12-11T07:19:39.144Z,24.67
2022-12-11T07:22:05.894Z,24.65
2022-12-11T07:24:32.525Z,28.27
2022-12-11T07:26:59.779Z,24.58
2022-12-11T07:29:26.260Z,26.95
2022-12-11T07:31:52.941Z,28.17
2022-12-11T07:34:19.485Z,28.08
2022-12-11T07:36:46.242Z,25.45
2022-12-11T07:39:12.889Z,24.65
2022-12-11T07:41:39.800Z,27.50
2022-12-11T07:44:06.335Z,23.97
2022-12-11T07:46:33.900Z,25.70
2022-12-11T07:49:03.556Z,23.08
2022-12-11T07:51:32.914Z,21.77
2022-12-11T07:54:07.247Z,23.77
2022-12-11T07:56:34.561Z,22.00
2022-12-11T07:59:02.994Z,24.17
2022-12-11T08:01:31.606Z,23.88
2022-12-11T08:03:58.213Z,20.95
2022-12-11T08:06:28.011Z,21.08
2022-12-11T08:08:55.915Z,21.77
2022-12-11T08:11:23.053Z,26.20
2022-12-11T08:13:49.870Z,23.30
2022-12-11T08:16:17.282Z,24.48
2022-12-11T08:18:45.326Z,22.95
2022-12-11T08:21:18.685Z,25.13
2022-12-11T08:23:45.674Z,25.25
2022-12-11T08:26:18.123Z,22.85
2022-12-11T08:28:44.668Z,25.73
2022-12-11T08:31:12.646Z,27.15
2022-12-11T08:33:39.941Z,27.47
2022-12-11T08:36:08.552Z,24.25
2022-12-11T08:38:35.523Z,29.48
2022-12-11T08:41:13.483Z,24.13
2022-12-11T08:43:40.978Z,23.05
2022-12-11T08:46:08.681Z,22.60
2022-12-11T08:48:36.780Z,20.65
2022-12-11T08:51:05.785Z,24.85
2022-12-11T08:53:33.058Z,21.42
2022-12-11T08:56:08.830Z,20.73
2022-12-11T08:58:35.829Z,18.47
2022-12-11T09:01:23.974Z,19.63
2022-12-11T09:03:52.311Z,19.10
2022-12-11T09:06:21.473Z,18.95
2022-12-11T09:08:52.641Z,21.77
2022-12-11T09:11:29.170Z,20.50
2022-12-11T09:13:55.617Z,21.95
2022-12-11T09:16:24.156Z,19.75
2022-12-11T09:18:52.596Z,19.58
2022-12-11T09:21:22.493Z,23.95
2022-12-11T09:23:50.207Z,22.03
2022-12-11T09:26:18.497Z,18.13
2022-12-11T09:28:46.973Z,22.60
2022-12-11T09:31:15.154Z,23.17
2022-12-11T09:33:41.636Z,23.02
2022-12-11T09:36:08.801Z,22.27
2022-12-11T09:38:36.537Z,24.10
2022-12-11T09:41:23.130Z,21.35
2022-12-11T09:44:16.324Z,28.70
2022-12-11T09:46:43.602Z,20.83
2022-12-11T09:49:39.872Z,20.30
2022-12-11T09:52:46.815Z,23.63
2022-12-11T09:55:20.485Z,23.95
2022-12-11T09:57:46.920Z,22.98
2022-12-11T10:00:16.206Z,24.95
2022-12-11T10:03:07.507Z,24.20
2022-12-11T10:05:46.168Z,21.98
2022-12-11T10:08:40.453Z,21.05
2022-12-11T10:11:44.469Z,19.92
2022-12-11T10:14:32.494Z,22.95
2022-12-11T10:17:19.484Z,22.73
2022-12-11T10:19:46.800Z,22.05
2022-12-11T10:22:24.491Z,21.67
2022-12-11T10:25:13.979Z,18.23
2022-12-11T10:27:41.417Z,23.00
2022-12-11T10:30:21.337Z,21.80
2022-12-11T10:33:02.889Z,21.50
2022-12-11T10:35:35.408Z,21.55
2022-12-11T10:38:31.154Z,23.50
2022-12-11T10:41:01.219Z,22.80
2022-12-11T10:43:35.882Z,19.90
2022-12-11T10:46:05.106Z,19.77
2022-12-11T10:48:31.588Z,19.23
2022-12-11T10:51:04.574Z,16.27
2022-12-11T10:53:34.456Z,18.55
2022-12-11T10:56:02.100Z,19.07
2022-12-11T10:58:33.947Z,20.95
2022-12-11T11:01:07.813Z,22.17
2022-12-11T11:03:36.649Z,19.10
2022-12-11T11:06:16.273Z,17.02
2022-12-11T11:08:49.110Z,21.80
2022-12-11T11:11:21.658Z,17.35
2022-12-11T11:13:48.454Z,17.77
2022-12-11T11:16:19.039Z,18.38
2022-12-11T11:18:56.014Z,20.38
2022-12-11T11:21:25.772Z,15.90
2022-12-11T11:23:54.072Z,18.25
2022-12-11T11:26:22.993Z,17.67
2022-12-11T11:28:53.953Z,15.07
2022-12-11T11:31:23.060Z,22.05
2022-12-11T11:33:56.947Z,16.53
2022-12-11T11:36:29.616Z,17.23
2022-12-11T11:38:59.010Z,19.10
2022-12-11T11:41:31.800Z,17.33
2022-12-11T11:44:03.320Z,15.27
2022-12-11T11:46:48.677Z,16.27
2022-12-11T11:49:24.084Z,17.98
2022-12-11T11:52:28.979Z,17.92
2022-12-11T11:55:10.101Z,17.77
2022-12-11T11:57:48.865Z,15.13
2022-12-11T12:00:20.728Z,15.77
2022-12-11T12:02:55.854Z,16.08
2022-12-11T12:05:42.183Z,15.27
2022-12-11T12:08:31.153Z,13.80
2022-12-11T12:11:05.457Z,14.63
2022-12-11T12:13:52.349Z,13.77
2022-12-11T12:16:54.082Z,18.58
2022-12-11T12:19:26.773Z,14.65
2022-12-11T12:21:54.735Z,16.83
2022-12-11T12:24:37.265Z,13.68
2022-12-11T12:27:51.468Z,14.50
2022-12-11T12:30:21.978Z,15.77
2022-12-11T12:33:07.021Z,15.18
2022-12-11T12:35:38.749Z,15.90
2022-12-11T12:38:17.773Z,15.32
2022-12-11T12:41:14.329Z,13.43
2022-12-11T12:43:57.329Z,16.35
2022-12-11T12:46:34.237Z,15.63
2022-12-11T12:49:02.709Z,12.52
2022-12-11T12:51:30.851Z,13.57
2022-12-11T12:54:05.573Z,14.67
2022-12-11T12:56:38.126Z,17.67
2022-12-11T12:59:04.585Z,19.15
2022-12-11T13:01:31.626Z,17.17
2022-12-11T13:04:02.215Z,15.85
2022-12-11T13:06:32.956Z,19.47
2022-12-11T13:09:16.160Z,14.32
2022-12-11T13:11:43.653Z,18.45
2022-12-11T13:14:16.443Z,19.17
2022-12-11T13:16:45.035Z,19.35
2022-12-11T13:19:30.757Z,19.47
2022-12-11T13:22:06.405Z,16.25
2022-12-11T13:24:33.938Z,23.10
2022-12-11T13:27:12.175Z,18.50
2022-12-11T13:29:41.370Z,18.52
2022-12-11T13:32:07.842Z,21.43
2022-12-11T13:34:37.729Z,19.55
2022-12-11T13:37:06.200Z,18.90
2022-12-11T13:39:35.459Z,19.70
2022-12-11T13:42:07.649Z,16.50
2022-12-11T13:44:39.477Z,22.23
2022-12-11T13:47:11.800Z,21.48
2022-12-11T13:49:42.420Z,20.67
2022-12-11T13:52:18.885Z,27.75
2022-12-11T13:54:54.328Z,21.90
2022-12-11T13:57:23.372Z,21.47
2022-12-11T13:59:55.872Z,21.30
2022-12-11T14:02:33.815Z,23.52
2022-12-11T14:05:09.757Z,22.30
2022-12-11T14:07:54.982Z,23.58
2022-12-11T14:10:23.353Z,22.07
2022-12-11T14:13:21.084Z,23.38
2022-12-11T14:15:47.765Z,24.63
2022-12-11T14:18:24.050Z,23.30
2022-12-11T14:20:59.070Z,26.55
2022-12-11T14:23:28.177Z,20.13
2022-12-11T14:25:54.848Z,28.00
2022-12-11T14:28:23.316Z,24.13
2022-12-11T14:30:51.956Z,23.80
2022-12-11T14:33:23.100Z,24.33
2022-12-11T14:35:52.647Z,23.60
2022-12-11T14:38:44.477Z,23.60
2022-12-11T14:41:21.532Z,27.08
2022-12-11T14:43:59.095Z,25.67
2022-12-11T14:46:40.177Z,50.72
2022-12-11T14:49:18.009Z,46.47
2022-12-11T14:51:45.141Z,33.80
2022-12-11T14:54:22.673Z,24.88
2022-12-11T14:56:49.487Z,31.48
2022-12-11T14:59:28.317Z,29.73
2022-12-11T15:02:04.363Z,21.73
2022-12-11T15:04:33.249Z,25.52
2022-12-11T15:07:00.420Z,25.98
2022-12-11T15:09:36.801Z,25.75
2022-12-11T15:12:09.488Z,25.52
2022-12-11T15:14:36.649Z,27.07
2022-12-11T15:17:03.329Z,23.90
2022-12-11T15:19:32.573Z,25.10
2022-12-11T15:22:08.531Z,22.42
2022-12-11T15:24:43.319Z,22.15
2022-12-11T15:27:19.108Z,20.63
2022-12-11T15:29:45.630Z,20.88
2022-12-11T15:32:13.989Z,19.95
2022-12-11T15:34:45.287Z,23.75
2022-12-11T15:37:32.097Z,24.48
2022-12-11T15:40:01.752Z,22.03
2022-12-11T15:42:36.514Z,25.02
2022-12-11T15:45:06.769Z,23.42
2022-12-11T15:47:33.287Z,26.40
2022-12-11T15:50:03.390Z,27.52
2022-12-11T15:52:29.923Z,24.70
2022-12-11T15:54:56.375Z,25.63
2022-12-11T15:57:24.651Z,24.52
2022-12-11T15:59:54.244Z,26.13
2022-12-11T16:02:21.328Z,20.77
2022-12-11T16:04:47.841Z,27.40
2022-12-11T16:07:21.298Z,24.80
2022-12-11T16:09:48.094Z,24.15
2022-12-11T16:12:15.283Z,28.75
2022-12-11T16:14:42.683Z,25.77
2022-12-11T16:17:11.039Z,28.57
2022-12-11T16:19:37.613Z,24.80
2022-12-11T16:22:05.281Z,25.92
2022-12-11T16:24:33.009Z,28.52
2022-12-11T16:26:59.561Z,30.00
2022-12-11T16:29:26.469Z,24.57
2022-12-11T16:31:52.948Z,22.52
2022-12-11T16:34:19.396Z,25.67
2022-12-11T16:36:45.889Z,22.25
2022-12-11T16:39:13.600Z,25.80
2022-12-11T16:41:40.099Z,24.73
2022-12-11T16:44:06.722Z,26.85
2022-12-11T16:46:33.815Z,24.27
2022-12-11T16:49:00.416Z,24.67
2022-12-11T16:51:27.004Z,24.50
2022-12-11T16:53:53.610Z,29.40
2022-12-11T16:56:20.191Z,25.33
2022-12-11T16:58:47.619Z,36.38
2022-12-11T17:01:15.074Z,29.08
2022-12-11T17:03:43.149Z,31.02
2022-12-11T17:06:12.136Z,26.33
2022-12-11T17:08:39.290Z,20.60
2022-12-11T17:11:07.768Z,26.17
2022-12-11T17:13:36.310Z,24.45
2022-12-11T17:16:08.195Z,21.42
2022-12-11T17:18:35.092Z,21.90
2022-12-11T17:21:15.702Z,26.35
2022-12-11T17:23:43.165Z,23.00
2022-12-11T17:26:09.867Z,23.38
2022-12-11T17:28:38.091Z,27.40
2022-12-11T17:31:10.079Z,21.50
2022-12-11T17:33:36.696Z,24.45
2022-12-11T17:36:05.686Z,24.08
2022-12-11T17:38:32.193Z,22.92
2022-12-11T17:40:58.769Z,24.02
2022-12-11T17:43:25.400Z,22.17
2022-12-11T17:45:55.335Z,26.55
2022-12-11T17:48:22.811Z,24.15
2022-12-11T17:50:51.072Z,36.63
2022-12-11T17:53:19.452Z,27.58
2022-12-11T17:55:47.037Z,25.27
2022-12-11T17:58:19.088Z,20.85
2022-12-11T18:00:47.272Z,22.25
2022-12-11T18:03:14.208Z,25.60
2022-12-11T18:05:45.910Z,23.30
2022-12-11T18:08:16.901Z,22.23
2022-12-11T18:10:44.510Z,24.30
2022-12-11T18:13:11.917Z,22.77
2022-12-11T18:15:39.280Z,25.80
2022-12-11T18:18:07.070Z,22.70
2022-12-11T18:20:35.302Z,20.10
2022-12-11T18:23:02.409Z,22.23
2022-12-11T18:25:28.999Z,19.25
2022-12-11T18:27:55.729Z,19.60
2022-12-11T18:30:24.228Z,19.85
2022-12-11T18:32:50.904Z,17.63
2022-12-11T18:35:17.431Z,17.65
2022-12-11T18:37:44.059Z,26.73
2022-12-11T18:40:12.136Z,19.17
2022-12-11T18:42:38.933Z,18.27
2022-12-11T18:45:07.002Z,20.63
2022-12-11T18:47:33.573Z,19.80
2022-12-11T18:50:04.109Z,26.52
2022-12-11T18:52:34.190Z,19.42
2022-12-11T18:55:00.868Z,17.38
2022-12-11T18:57:27.436Z,10.97
2022-12-11T18:59:54.027Z,15.48
2022-12-11T19:02:20.915Z,16.48
2022-12-11T19:04:47.915Z,17.20
2022-12-11T19:07:14.596Z,20.50
2022-12-11T19:09:46.261Z,17.10
2022-12-11T19:12:14.684Z,17.40
2022-12-11T19:14:41.227Z,15.98
2022-12-11T19:17:07.902Z,17.38
2022-12-11T19:19:34.679Z,13.82
2022-12-11T19:22:01.414Z,17.53
2022-12-11T19:24:28.196Z,19.02
2022-12-11T19:26:54.615Z,17.02
2022-12-11T19:29:34.047Z,17.52
2022-12-11T19:32:04.623Z,15.55
2022-12-11T19:34:31.463Z,15.10
2022-12-11T19:36:58.088Z,16.33
2022-12-11T19:39:25.028Z,18.40
2022-12-11T19:41:51.442Z,19.10
2022-12-11T19:44:18.078Z,13.90
2022-12-11T19:46:44.725Z,15.60
2022-12-11T19:49:11.888Z,15.10
2022-12-11T19:51:40.269Z,16.10
2022-12-11T19:54:08.963Z,16.48
2022-12-11T19:56:35.708Z,16.83
2022-12-11T19:59:05.262Z,15.80
2022-12-11T20:01:33.767Z,14.80
2022-12-11T20:04:07.771Z,15.25
2022-12-11T20:06:36.262Z,14.63
2022-12-11T20:09:06.064Z,13.35
2022-12-11T20:11:33.446Z,15.60
2022-12-11T20:14:00.424Z,18.70
2022-12-11T20:16:46.395Z,18.30
2022-12-11T20:19:13.664Z,21.27
2022-12-11T20:21:40.314Z,19.00
2022-12-11T20:24:07.116Z,20.63
2022-12-11T20:26:36.392Z,21.55
2022-12-11T20:29:05.356Z,17.33
2022-12-11T20:31:33.084Z,18.73
2022-12-11T20:33:59.832Z,17.42
2022-12-11T20:36:26.726Z,17.27
2022-12-11T20:38:53.362Z,16.40
2022-12-11T20:41:23.354Z,18.35
2022-12-11T20:43:50.694Z,19.67
2022-12-11T20:46:18.545Z,18.23
2022-12-11T20:48:46.206Z,18.57
2022-12-11T20:51:14.705Z,17.25
2022-12-11T20:53:42.415Z,17.38
2022-12-11T20:56:18.380Z,17.30
2022-12-11T20:58:45.552Z,18.08
2022-12-11T21:01:16.747Z,18.33
2022-12-11T21:03:43.900Z,16.50
2022-12-11T21:06:21.446Z,16.20
2022-12-11T21:08:48.555Z,15.05
2022-12-11T21:11:15.152Z,15.00
2022-12-11T21:13:41.863Z,17.60
2022-12-11T21:16:09.054Z,17.08
2022-12-11T21:18:36.443Z,13.77
2022-12-11T21:21:03.651Z,15.90
2022-12-11T21:23:30.170Z,18.08
2022-12-11T21:25:56.716Z,15.80
2022-12-11T21:28:23.289Z,16.30
2022-12-11T21:30:49.897Z,16.23
2022-12-11T21:33:16.557Z,17.98
2022-12-11T21:35:43.436Z,16.33
2022-12-11T21:38:10.037Z,16.33
2022-12-11T21:40:36.680Z,13.82
2022-12-11T21:43:03.535Z,17.52
2022-12-11T21:48:16.913Z,15.00
2022-12-11T21:50:43.450Z,18.83
2022-12-11T21:53:10.072Z,16.27
2022-12-11T21:55:40.353Z,15.40
2022-12-11T21:58:06.961Z,16.73
2022-12-11T22:00:35.958Z,16.25
2022-12-11T22:03:02.603Z,17.10
2022-12-11T22:05:29.073Z,18.10
2022-12-11T22:07:55.601Z,16.27
2022-12-11T22:10:22.161Z,14.55
2022-12-11T22:12:48.658Z,17.20
2022-12-11T22:15:15.319Z,14.27
2022-12-11T22:17:41.824Z,14.95
2022-12-11T22:20:09.299Z,14.75
2022-12-11T22:22:35.811Z,17.83
2022-12-11T22:25:03.698Z,18.08
2022-12-11T22:27:30.215Z,13.87
2022-12-11T22:29:56.720Z,17.55
2022-12-11T22:32:23.397Z,14.20
2022-12-11T22:34:49.893Z,15.55
2022-12-11T22:37:16.392Z,18.92
2022-12-11T22:39:42.879Z,16.60
2022-12-11T22:42:09.417Z,13.77
2022-12-11T22:44:35.892Z,15.32
2022-12-11T22:47:02.433Z,13.55
2022-12-11T22:49:28.950Z,16.10
2022-12-11T22:51:57.298Z,13.40
2022-12-11T22:54:24.166Z,14.20
2022-12-11T22:56:50.590Z,14.88
2022-12-11T22:59:17.073Z,14.85
2022-12-11T23:01:43.689Z,15.05
2022-12-11T23:04:10.313Z,17.27
2022-12-11T23:06:37.367Z,15.45
2022-12-11T23:09:03.996Z,19.70
2022-12-11T23:11:34.931Z,15.27
2022-12-11T23:14:02.101Z,18.85
2022-12-11T23:16:28.769Z,18.03
2022-12-11T23:18:56.909Z,18.00
2022-12-11T23:21:25.095Z,19.15
2022-12-11T23:23:51.860Z,17.15
2022-12-11T23:26:19.221Z,14.95
2022-12-11T23:28:46.793Z,15.90
2022-12-11T23:31:14.447Z,19.15
2022-12-11T23:33:41.134Z,19.83
2022-12-11T23:36:08.262Z,17.45
2022-12-11T23:38:35.250Z,15.45
2022-12-11T23:41:02.752Z,16.87
2022-12-11T23:43:29.772Z,16.48
2022-12-11T23:45:56.378Z,15.68
2022-12-11T23:48:22.928Z,18.63
2022-12-11T23:50:49.387Z,16.52
2022-12-11T23:53:15.857Z,16.20
2022-12-11T23:55:44.572Z,14.73
2022-12-11T23:58:11.839Z,16.00
